createdAt,value
2023-02-15T00:01:13.054Z,75.09
2023-02-15T00:04:22.758Z,75.07
2023-02-15T00:07:29.084Z,75.09
2023-02-15T00:10:33.567Z,75.05
2023-02-15T00:13:43.327Z,75.13
2023-02-15T00:16:51.111Z,75.21
2023-02-15T00:19:57.339Z,75.22
2023-02-15T00:23:04.008Z,75.14
2023-02-15T00:26:12.649Z,75.16
2023-02-15T00:29:20.823Z,75.04
2023-02-15T00:32:27.045Z,75.03
2023-02-15T00:35:33.289Z,75.10
2023-02-15T00:38:40.275Z,75.13
2023-02-15T00:41:46.643Z,75.18
2023-02-15T00:44:51.153Z,75.27
2023-02-15T00:47:57.394Z,75.23
2023-02-15T00:51:04.064Z,75.34
2023-02-15T00:54:10.303Z,75.37
2023-02-15T00:57:16.579Z,75.29
2023-02-15T01:00:21.238Z,75.32
2023-02-15T01:03:27.447Z,75.36
2023-02-15T01:06:33.584Z,75.49
2023-02-15T01:09:39.774Z,75.33
2023-02-15T01:12:45.915Z,75.47
2023-02-15T01:15:57.198Z,75.37
2023-02-15T01:19:04.438Z,75.47
2023-02-15T01:22:10.745Z,75.52
2023-02-15T01:25:15.269Z,75.40
2023-02-15T01:28:21.547Z,75.44
2023-02-15T01:31:27.952Z,75.47
2023-02-15T01:34:34.566Z,75.30
2023-02-15T01:37:41.416Z,75.43
2023-02-15T01:40:47.692Z,75.41
2023-02-15T01:43:56.235Z,75.45
2023-02-15T01:47:02.957Z,75.36
2023-02-15T01:50:15.226Z,75.39
2023-02-15T01:53:26.767Z,75.37
2023-02-15T01:56:37.054Z,75.46
2023-02-15T01:59:45.650Z,75.45
2023-02-15T02:02:56.299Z,75.41
2023-02-15T02:06:02.815Z,75.42
2023-02-15T02:09:09.610Z,75.38
2023-02-15T02:12:16.639Z,75.32
2023-02-15T02:15:29.609Z,75.24
2023-02-15T02:18:48.808Z,75.24
2023-02-15T02:22:34.942Z,75.21
2023-02-15T02:26:27.760Z,75.25
2023-02-15T02:30:07.247Z,75.30
2023-02-15T02:33:27.380Z,75.27
2023-02-15T02:36:42.968Z,75.28
2023-02-15T02:39:58.733Z,75.39
2023-02-15T02:43:13.113Z,75.27
2023-02-15T02:46:23.246Z,75.40
2023-02-15T02:49:37.324Z,75.38
2023-02-15T02:52:46.181Z,75.39
2023-02-15T02:55:57.724Z,75.34
2023-02-15T02:59:07.990Z,75.45
2023-02-15T03:02:18.959Z,75.42
2023-02-15T03:05:29.495Z,75.39
2023-02-15T03:08:39.169Z,75.19
2023-02-15T03:11:47.180Z,75.32
2023-02-15T03:14:57.699Z,75.42
2023-02-15T03:18:05.654Z,75.40
2023-02-15T03:21:23.279Z,75.34
2023-02-15T03:24:34.904Z,75.20
2023-02-15T03:27:44.389Z,75.27
2023-02-15T03:30:55.895Z,75.32
2023-02-15T03:34:05.504Z,75.27
2023-02-15T03:37:18.118Z,75.21
2023-02-15T03:40:47.140Z,75.17
2023-02-15T03:43:59.035Z,75.31
2023-02-15T03:47:11.590Z,75.47
2023-02-15T03:50:40.586Z,75.38
2023-02-15T03:53:48.809Z,75.31
2023-02-15T03:57:10.464Z,75.38
2023-02-15T04:00:39.217Z,75.18
2023-02-15T04:03:47.741Z,75.39
2023-02-15T04:06:54.287Z,75.40
2023-02-15T04:10:17.887Z,75.40
2023-02-15T04:13:25.325Z,75.20
2023-02-15T04:16:32.534Z,75.33
2023-02-15T04:19:56.553Z,75.40
2023-02-15T04:23:20.116Z,75.44
2023-02-15T04:26:26.185Z,75.29
2023-02-15T04:29:33.368Z,75.37
2023-02-15T04:32:39.986Z,75.41
2023-02-15T04:35:47.433Z,75.32
2023-02-15T04:38:53.981Z,75.36
2023-02-15T04:42:00.229Z,75.36
2023-02-15T04:45:07.675Z,75.34
2023-02-15T04:48:13.778Z,75.34
2023-02-15T04:51:19.983Z,75.32
2023-02-15T04:54:26.436Z,75.36
2023-02-15T04:57:32.729Z,75.43
2023-02-15T05:00:37.646Z,75.38
2023-02-15T05:03:43.885Z,75.42
2023-02-15T05:06:50.112Z,75.44
2023-02-15T05:09:56.371Z,75.45
2023-02-15T05:13:02.585Z,75.45
2023-02-15T05:16:09.214Z,75.48
2023-02-15T05:19:15.632Z,75.51
2023-02-15T05:22:21.908Z,75.43
2023-02-15T05:25:43.906Z,75.49
2023-02-15T05:28:50.086Z,75.43
2023-02-15T05:31:56.393Z,75.47
2023-02-15T05:35:02.796Z,75.48
2023-02-15T05:38:07.323Z,75.69
2023-02-15T05:41:14.128Z,75.54
2023-02-15T05:44:20.586Z,75.46
2023-02-15T05:47:26.816Z,75.47
2023-02-15T05:50:33.258Z,75.46
2023-02-15T05:53:40.762Z,75.58
2023-02-15T05:56:47.016Z,75.66
2023-02-15T05:59:53.276Z,75.77
2023-02-15T06:02:57.870Z,75.68
2023-02-15T06:06:05.665Z,75.74
2023-02-15T06:09:12.267Z,75.67
2023-02-15T06:12:18.458Z,75.66
2023-02-15T06:15:24.769Z,75.65
2023-02-15T06:18:29.275Z,75.74
2023-02-15T06:21:35.443Z,75.66
2023-02-15T06:24:43.415Z,75.84
2023-02-15T06:27:50.375Z,75.81
2023-02-15T06:30:56.733Z,75.66
2023-02-15T06:34:02.963Z,75.62
2023-02-15T06:37:09.825Z,75.64
2023-02-15T06:40:17.281Z,75.60
2023-02-15T06:43:23.735Z,75.58
2023-02-15T06:46:30.391Z,75.51
2023-02-15T06:49:36.596Z,75.57
2023-02-15T06:52:42.854Z,75.62
2023-02-15T06:55:47.316Z,75.72
2023-02-15T06:58:53.849Z,75.71
2023-02-15T07:02:00.119Z,75.74
2023-02-15T07:05:06.565Z,75.77
2023-02-15T07:08:12.926Z,75.65
2023-02-15T07:11:36.494Z,75.57
2023-02-15T07:14:42.812Z,75.66
2023-02-15T07:17:47.417Z,75.64
2023-02-15T07:20:53.600Z,75.72
2023-02-15T07:24:01.646Z,75.86
2023-02-15T07:27:08.481Z,75.80
2023-02-15T07:30:18.108Z,75.74
2023-02-15T07:33:28.181Z,75.72
2023-02-15T07:36:34.505Z,75.79
2023-02-15T07:39:39.015Z,75.69
2023-02-15T07:42:45.313Z,75.76
2023-02-15T07:45:50.066Z,75.73
2023-02-15T07:48:56.468Z,75.76
2023-02-15T07:52:04.300Z,75.76
2023-02-15T07:55:13.817Z,75.93
2023-02-15T07:58:20.654Z,75.73
2023-02-15T08:01:29.913Z,75.72
2023-02-15T08:04:36.180Z,75.90
2023-02-15T08:07:42.288Z,75.85
2023-02-15T08:11:06.124Z,75.62
2023-02-15T08:14:13.882Z,75.63
2023-02-15T08:17:20.115Z,75.70
2023-02-15T08:20:26.293Z,75.70
2023-02-15T08:23:32.588Z,75.63
2023-02-15T08:26:37.453Z,75.61
2023-02-15T08:29:44.094Z,75.71
2023-02-15T08:32:50.323Z,75.50
2023-02-15T08:35:56.602Z,75.46
2023-02-15T08:39:05.155Z,75.48
2023-02-15T08:42:11.612Z,75.48
2023-02-15T08:45:18.079Z,75.56
2023-02-15T08:48:24.356Z,75.64
2023-02-15T08:51:31.905Z,75.68
2023-02-15T08:54:38.227Z,75.54
2023-02-15T08:57:46.018Z,75.68
2023-02-15T09:00:52.263Z,75.48
2023-02-15T09:03:59.696Z,75.54
2023-02-15T09:07:06.434Z,75.43
2023-02-15T09:10:13.525Z,75.42
2023-02-15T09:13:19.760Z,75.48
2023-02-15T09:16:28.002Z,75.72
2023-02-15T09:19:34.237Z,75.45
2023-02-15T09:22:40.505Z,75.48
2023-02-15T09:25:45.077Z,75.46
2023-02-15T09:28:54.142Z,75.52
2023-02-15T09:32:00.377Z,75.48
2023-02-15T09:35:04.951Z,75.38
2023-02-15T09:38:13.147Z,75.35
2023-02-15T09:41:39.484Z,75.47
2023-02-15T09:45:06.377Z,75.30
2023-02-15T09:48:31.969Z,75.27
2023-02-15T09:51:55.740Z,75.30
2023-02-15T09:55:13.263Z,75.22
2023-02-15T09:58:28.223Z,75.29
2023-02-15T10:01:45.490Z,75.19
2023-02-15T10:05:06.609Z,75.26
2023-02-15T10:08:34.334Z,75.24
2023-02-15T10:11:51.716Z,75.20
2023-02-15T10:15:14.498Z,74.95
2023-02-15T10:18:36.761Z,75.09
2023-02-15T10:21:57.375Z,74.94
2023-02-15T10:25:22.120Z,75.08
2023-02-15T10:28:37.791Z,75.06
2023-02-15T10:31:51.817Z,74.99
2023-02-15T10:35:03.274Z,74.86
2023-02-15T10:38:26.910Z,74.81
2023-02-15T10:41:47.117Z,74.66
2023-02-15T10:45:08.275Z,74.68
2023-02-15T10:48:56.786Z,74.63
2023-02-15T10:52:19.463Z,74.65
2023-02-15T10:55:34.704Z,74.55
2023-02-15T10:59:05.483Z,74.45
2023-02-15T11:02:23.051Z,74.53
2023-02-15T11:05:50.322Z,74.51
2023-02-15T11:09:02.194Z,74.52
2023-02-15T11:12:13.794Z,74.30
2023-02-15T11:15:28.590Z,74.35
2023-02-15T11:18:38.340Z,74.29
2023-02-15T11:21:48.168Z,74.26
2023-02-15T11:24:58.708Z,74.09
2023-02-15T11:28:13.260Z,73.96
2023-02-15T11:31:22.031Z,73.96
2023-02-15T11:34:34.124Z,73.98
2023-02-15T11:37:50.544Z,74.06
2023-02-15T11:40:59.785Z,73.96
2023-02-15T11:44:16.284Z,73.84
2023-02-15T11:47:22.597Z,73.56
2023-02-15T11:50:27.882Z,73.51
2023-02-15T11:53:39.570Z,73.55
2023-02-15T11:56:46.488Z,73.56
2023-02-15T11:59:58.656Z,73.34
2023-02-15T12:03:18.615Z,73.13
2023-02-15T12:06:30.036Z,72.99
2023-02-15T12:09:41.228Z,73.03
2023-02-15T12:12:47.857Z,72.94
2023-02-15T12:15:58.102Z,72.72
2023-02-15T12:19:05.296Z,72.70
2023-02-15T12:22:25.905Z,72.58
2023-02-15T12:25:38.692Z,72.12
2023-02-15T12:28:46.876Z,72.00
2023-02-15T12:31:54.647Z,72.17
2023-02-15T12:35:10.736Z,71.97
2023-02-15T12:38:25.532Z,71.78
2023-02-15T12:41:31.774Z,71.45
2023-02-15T12:44:37.047Z,71.51
2023-02-15T12:47:43.336Z,71.39
2023-02-15T12:50:57.490Z,71.29
2023-02-15T12:54:23.427Z,71.03
2023-02-15T12:57:32.496Z,70.86
2023-02-15T13:00:38.966Z,70.74
2023-02-15T13:04:00.278Z,70.61
2023-02-15T13:07:06.800Z,70.59
2023-02-15T13:10:25.511Z,70.75
2023-02-15T13:13:34.352Z,70.59
2023-02-15T13:16:41.995Z,70.20
2023-02-15T13:19:51.008Z,70.14
2023-02-15T13:23:01.986Z,70.10
2023-02-15T13:26:13.496Z,70.04
2023-02-15T13:29:24.960Z,69.65
2023-02-15T13:32:37.311Z,69.63
2023-02-15T13:35:49.077Z,69.36
2023-02-15T13:39:05.145Z,69.21
2023-02-15T13:42:22.699Z,69.20
2023-02-15T13:45:40.954Z,69.13
2023-02-15T13:48:56.930Z,68.96
2023-02-15T13:52:06.618Z,68.72
2023-02-15T13:55:31.479Z,68.57
2023-02-15T13:59:07.049Z,68.48
2023-02-15T14:02:28.292Z,68.38
2023-02-15T14:05:46.670Z,68.46
2023-02-15T14:09:08.028Z,68.15
2023-02-15T14:12:37.229Z,68.02
2023-02-15T14:15:49.736Z,67.83
2023-02-15T14:19:05.999Z,67.62
2023-02-15T14:22:22.871Z,67.55
2023-02-15T14:25:32.989Z,67.60
2023-02-15T14:28:46.032Z,67.42
2023-02-15T14:31:56.279Z,67.40
2023-02-15T14:35:04.413Z,67.25
2023-02-15T14:38:22.784Z,67.13
2023-02-15T14:41:38.862Z,67.09
2023-02-15T14:44:52.099Z,66.94
2023-02-15T14:48:06.680Z,66.74
2023-02-15T14:51:34.212Z,66.66
2023-02-15T14:54:59.364Z,66.66
2023-02-15T14:58:13.018Z,66.58
2023-02-15T15:01:27.319Z,66.39
2023-02-15T15:04:38.310Z,66.47
2023-02-15T15:07:49.870Z,66.47
2023-02-15T15:10:56.621Z,66.52
2023-02-15T15:14:05.224Z,66.53
2023-02-15T15:17:15.540Z,66.53
2023-02-15T15:20:46.913Z,66.54
2023-02-15T15:23:53.149Z,66.34
2023-02-15T15:27:10.993Z,66.44
2023-02-15T15:31:00.743Z,66.30
2023-02-15T15:34:39.097Z,66.37
2023-02-15T15:38:26.927Z,66.50
2023-02-15T15:41:44.399Z,66.51
2023-02-15T15:45:28.160Z,66.62
2023-02-15T15:48:39.203Z,66.53
2023-02-15T15:51:47.283Z,66.47
2023-02-15T15:54:57.869Z,66.55
2023-02-15T15:58:08.154Z,66.55
2023-02-15T16:01:15.956Z,66.57
2023-02-15T16:04:30.892Z,66.51
2023-02-15T16:07:37.176Z,66.53
2023-02-15T16:10:42.793Z,66.43
2023-02-15T16:13:49.479Z,66.56
2023-02-15T16:16:59.147Z,66.66
2023-02-15T16:20:09.891Z,66.71
2023-02-15T16:23:32.567Z,66.83
2023-02-15T16:26:53.870Z,66.76
2023-02-15T16:30:00.212Z,66.66
2023-02-15T16:33:09.227Z,66.74
2023-02-15T16:36:22.756Z,66.76
2023-02-15T16:39:29.337Z,66.96
2023-02-15T16:42:36.887Z,66.95
2023-02-15T16:45:43.437Z,67.11
2023-02-15T16:48:52.822Z,67.01
2023-02-15T16:52:06.458Z,67.02
2023-02-15T16:55:24.490Z,67.07
2023-02-15T16:58:42.092Z,67.30
2023-02-15T17:01:49.034Z,67.41
2023-02-15T17:05:19.478Z,67.44
2023-02-15T17:08:29.705Z,67.44
2023-02-15T17:11:42.403Z,67.18
2023-02-15T17:14:48.648Z,67.10
2023-02-15T17:17:57.256Z,67.32
2023-02-15T17:21:14.414Z,67.57
2023-02-15T17:24:25.277Z,67.53
2023-02-15T17:27:34.123Z,67.55
2023-02-15T17:30:40.866Z,67.65
2023-02-15T17:33:47.660Z,67.68
2023-02-15T17:37:03.350Z,67.76
2023-02-15T17:40:22.424Z,67.76
2023-02-15T17:43:28.674Z,67.96
2023-02-15T17:46:38.137Z,67.98
2023-02-15T17:49:44.948Z,68.00
2023-02-15T17:52:52.045Z,68.02
2023-02-15T17:55:58.293Z,68.23
2023-02-15T17:59:07.642Z,68.38
2023-02-15T18:02:32.712Z,68.26
2023-02-15T18:05:56.592Z,68.15
2023-02-15T18:09:20.283Z,68.07
2023-02-15T18:12:28.831Z,68.08
2023-02-15T18:15:36.075Z,68.33
2023-02-15T18:18:42.614Z,68.52
2023-02-15T18:21:49.518Z,68.39
2023-02-15T18:24:56.184Z,68.63
2023-02-15T18:28:02.449Z,68.78
2023-02-15T18:31:08.767Z,68.83
2023-02-15T18:34:22.283Z,68.76
2023-02-15T18:37:34.312Z,68.49
2023-02-15T18:40:40.546Z,68.66
2023-02-15T18:43:47.139Z,68.77
2023-02-15T18:46:53.479Z,68.95
2023-02-15T18:49:58.030Z,68.99
2023-02-15T18:53:06.612Z,69.07
2023-02-15T18:56:18.646Z,69.08
2023-02-15T18:59:25.767Z,69.15
2023-02-15T19:02:32.064Z,69.03
2023-02-15T19:05:40.711Z,68.93
2023-02-15T19:08:48.965Z,68.83
2023-02-15T19:11:57.554Z,69.03
2023-02-15T19:15:03.825Z,69.20
2023-02-15T19:18:08.430Z,69.31
2023-02-15T19:21:18.897Z,69.46
2023-02-15T19:24:31.321Z,69.34
2023-02-15T19:27:39.258Z,69.30
2023-02-15T19:30:45.690Z,69.32
2023-02-15T19:33:52.116Z,69.55
2023-02-15T19:36:57.901Z,69.51
2023-02-15T19:40:04.439Z,69.65
2023-02-15T19:43:18.683Z,69.65
2023-02-15T19:46:25.963Z,69.76
2023-02-15T19:49:32.303Z,69.71
2023-02-15T19:52:38.966Z,69.71
2023-02-15T19:55:45.291Z,69.85
2023-02-15T19:58:50.780Z,69.84
2023-02-15T20:01:57.863Z,69.97
2023-02-15T20:05:04.239Z,70.14
2023-02-15T20:08:09.428Z,70.09
2023-02-15T20:11:16.909Z,70.07
2023-02-15T20:14:24.116Z,70.07
2023-02-15T20:17:30.369Z,70.16
2023-02-15T20:20:43.457Z,70.29
2023-02-15T20:23:49.768Z,70.31
2023-02-15T20:26:54.208Z,70.29
2023-02-15T20:30:00.677Z,70.36
2023-02-15T20:33:07.663Z,70.47
2023-02-15T20:36:17.385Z,70.45
2023-02-15T20:39:23.867Z,70.47
2023-02-15T20:42:28.249Z,70.64
2023-02-15T20:45:35.124Z,70.64
2023-02-15T20:48:41.407Z,70.65
2023-02-15T20:51:48.220Z,70.64
2023-02-15T20:54:54.477Z,70.71
2023-02-15T20:58:01.131Z,70.71
2023-02-15T21:01:12.582Z,70.74
2023-02-15T21:04:23.269Z,70.86
2023-02-15T21:07:29.512Z,70.86
2023-02-15T21:10:37.292Z,70.93
2023-02-15T21:13:43.613Z,71.05
2023-02-15T21:16:48.565Z,71.08
2023-02-15T21:19:54.838Z,71.15
2023-02-15T21:23:00.784Z,71.17
2023-02-15T21:26:08.371Z,71.16
2023-02-15T21:29:17.924Z,71.43
2023-02-15T21:32:24.314Z,71.32
2023-02-15T21:35:31.645Z,71.32
2023-02-15T21:38:38.428Z,71.50
2023-02-15T21:42:15.535Z,71.53
2023-02-15T21:45:39.613Z,71.68
2023-02-15T21:48:46.471Z,71.48
2023-02-15T21:52:09.970Z,71.58
2023-02-15T21:55:18.796Z,71.72
2023-02-15T21:58:27.176Z,71.79
2023-02-15T22:01:33.650Z,71.75
2023-02-15T22:04:40.362Z,71.80
2023-02-15T22:07:47.087Z,71.96
2023-02-15T22:10:54.968Z,71.99
2023-02-15T22:14:01.178Z,72.03
2023-02-15T22:17:16.541Z,72.08
2023-02-15T22:20:24.753Z,72.12
2023-02-15T22:23:31.140Z,72.21
2023-02-15T22:26:35.711Z,72.25
2023-02-15T22:29:41.988Z,72.48
2023-02-15T22:32:46.454Z,72.54
2023-02-15T22:35:52.796Z,72.58
2023-02-15T22:38:57.855Z,72.50
2023-02-15T22:42:04.218Z,72.43
2023-02-15T22:45:20.798Z,72.49
2023-02-15T22:48:27.091Z,72.47
2023-02-15T22:51:31.620Z,72.53
2023-02-15T22:54:37.954Z,72.72
2023-02-15T22:57:42.514Z,72.73
2023-02-15T23:00:48.728Z,72.67
2023-02-15T23:03:54.949Z,72.63
2023-02-15T23:07:01.432Z,72.57
2023-02-15T23:10:21.213Z,72.55
2023-02-15T23:13:31.408Z,72.66
2023-02-15T23:16:37.617Z,72.87
2023-02-15T23:19:43.963Z,72.82
2023-02-15T23:22:48.461Z,72.62
2023-02-15T23:25:54.740Z,72.57
2023-02-15T23:29:00.203Z,72.53
2023-02-15T23:32:06.875Z,72.59
2023-02-15T23:35:17.105Z,72.70
2023-02-15T23:38:29.294Z,72.89
2023-02-15T23:41:35.645Z,72.99
2023-02-15T23:44:44.044Z,72.91
2023-02-15T23:48:08.175Z,73.04
2023-02-15T23:51:14.553Z,73.00
2023-02-15T23:54:19.588Z,73.02
2023-02-15T23:57:25.821Z,73.15
